Havana, Cuba
Current Conditions -  °F | °C
As of 11:55 PM on Saturday 25 Oct 2014 (Local Time) from MUHA Reporting Station
Scattered Clouds Scattered Clouds  
Wind Chill: 70°   Ceiling: Unl
Heat Index: 70°   Visibility: 6mi
Dew Point: 59°   Wind: 5mph
Humidity: 68%   Direction: 60°ENE
Pressure: 29.94"   Gusts: NA
Location:  23.12°N, 82.39°W
Report Text: MUHA 260355Z 06004KT 9999 SCT030 21/15 Q1014
Loading
Personal Weather Stations






























Interactive Weather Map
Tropical Storm Tracking
New forecast layout! Learn more

10-Day Weather Forecast

Advertisements
Track Severe Weather on mobile